Time;durP1;ratioP1;P1;durP2;ratioP2;P2;SDS_P1;SDS_P2;PMS_P1;PMS_P2;Temp;Humidity;BMP_temperature;BMP_pressure;BME280_temperature;BME280_humidity;BME280_pressure;Samples;Min_cycle;Max_cycle;Signal;HPM_P1;HPM_P2
2019/05/09 04:03:17;;;;;;;0.7;0.5;;;;;;;11.41;62.79102;948.3025;;;;
2019/05/09 04:05:42;;;;;;;1;0.5;;;;;;;11.52;62.29102;948.3412;;;;
2019/05/09 04:08:17;;;;;;;0.9;0.4;;;;;;;11.55;62.03613;948.3129;;;;
2019/05/09 04:10:33;;;;;;;1;0.6;;;;;;;11.79;60.97852;948.3201;;;;
2019/05/09 04:12:58;;;;;;;2.3;0.7;;;;;;;11.99;60.26465;948.2933;;;;
2019/05/09 04:15:25;;;;;;;2;0.7;;;;;;;11.9;60.52441;948.2204;;;;
2019/05/09 04:17:50;;;;;;;1.2;0.7;;;;;;;11.96;60.41406;948.3778;;;;
2019/05/09 04:20:16;;;;;;;1.4;0.6;;;;;;;12.12;59.90625;948.3639;;;;
2019/05/09 04:22:41;;;;;;;1.1;0.5;;;;;;;12.06;59.89844;948.3186;;;;
2019/05/09 04:25:06;;;;;;;2.5;0.7;;;;;;;12.19;59.50586;948.3654;;;;
2019/05/09 04:27:32;;;;;;;1;0.4;;;;;;;12.15;59.91113;948.4214;;;;
2019/05/09 04:29:57;;;;;;;1.2;0.6;;;;;;;12.29;59.10742;948.4196;;;;
2019/05/09 04:32:24;;;;;;;3.2;0.6;;;;;;;12.4;58.66211;948.3273;;;;
2019/05/09 04:34:49;;;;;;;0.9;0.6;;;;;;;12.44;58.57422;948.3011;;;;
2019/05/09 04:37:14;;;;;;;2.4;0.7;;;;;;;12.51;58.18359;948.2441;;;;
2019/05/09 04:39:40;;;;;;;4;0.7;;;;;;;12.49;58.34473;948.2658;;;;
2019/05/09 04:42:05;;;;;;;2;0.6;;;;;;;12.56;58.26074;948.2333;;;;
2019/05/09 04:44:35;;;;;;;3.5;0.6;;;;;;;12.53;58.33887;948.1967;;;;
2019/05/09 04:46:55;;;;;;;1.4;0.7;;;;;;;12.47;58.68359;948.1997;;;;
2019/05/09 04:49:21;;;;;;;0.9;0.6;;;;;;;12.33;58.98145;948.1993;;;;
2019/05/09 04:51:46;;;;;;;2;0.7;;;;;;;12.42;58.77051;948.2629;;;;
2019/05/09 04:54:11;;;;;;;1.2;0.5;;;;;;;12.44;58.35059;948.1707;;;;
2019/05/09 04:56:38;;;;;;;2.6;0.7;;;;;;;12.33;58.92383;948.2631;;;;
2019/05/09 04:59:01;;;;;;;1.3;0.7;;;;;;;12.38;58.84766;948.2408;;;;
2019/05/09 05:03:54;;;;;;;1.9;0.7;;;;;;;12.39;59.09668;948.2559;;;;
2019/05/09 05:06:18;;;;;;;2.1;0.7;;;;;;;12.35;59.03223;948.2805;;;;
2019/05/09 05:08:43;;;;;;;2.3;1.4;;;;;;;12.43;59.24316;948.2819;;;;
2019/05/09 05:11:08;;;;;;;2.9;0.9;;;;;;;12.53;58.79785;948.2227;;;;
2019/05/09 05:13:34;;;;;;;1.4;0.7;;;;;;;12.6;58.24219;948.2778;;;;
2019/05/09 05:15:59;;;;;;;1.4;0.7;;;;;;;12.49;58.10938;948.2043;;;;
2019/05/09 05:18:24;;;;;;;1.5;0.8;;;;;;;12.33;59.06445;948.2983;;;;
2019/05/09 05:20:49;;;;;;;2.1;0.8;;;;;;;12.47;58.86133;948.2819;;;;
2019/05/09 05:23:19;;;;;;;1.1;0.7;;;;;;;12.62;58.20898;948.3436;;;;
2019/05/09 05:25:39;;;;;;;1.6;0.7;;;;;;;12.53;58.44434;948.3049;;;;
2019/05/09 05:28:04;;;;;;;2.8;0.7;;;;;;;12.68;58.48828;948.2737;;;;
2019/05/09 05:30:29;;;;;;;1.8;0.7;;;;;;;12.62;57.51465;948.3904;;;;
2019/05/09 05:33:02;;;;;;;1.3;0.7;;;;;;;12.7;57.73828;948.3173;;;;
2019/05/09 05:35:32;;;;;;;1.3;0.8;;;;;;;12.76;57.76855;948.3066;;;;
2019/05/09 05:37:45;;;;;;;2;0.7;;;;;;;12.64;58.05957;948.3914;;;;
2019/05/09 05:40:10;;;;;;;1.1;0.7;;;;;;;12.64;57.9541;948.2739;;;;
2019/05/09 05:42:35;;;;;;;2.8;0.9;;;;;;;12.64;58.08203;948.2961;;;;
2019/05/09 05:45:00;;;;;;;1.3;0.7;;;;;;;12.8;57.51563;948.3008;;;;
2019/05/09 05:47:47;;;;;;;2.4;0.7;;;;;;;12.65;58.07129;948.3116;;;;
2019/05/09 05:49:51;;;;;;;1;0.6;;;;;;;12.63;57.84473;948.2769;;;;
2019/05/09 05:52:16;;;;;;;2.3;0.6;;;;;;;12.19;59.56348;948.3485;;;;
2019/05/09 05:54:42;;;;;;;2.5;0.7;;;;;;;12.62;58.40918;948.3528;;;;
2019/05/09 05:57:07;;;;;;;4.4;0.9;;;;;;;12.73;57.91699;948.2864;;;;
2019/05/09 05:59:32;;;;;;;1.8;0.8;;;;;;;12.85;57.88672;948.3606;;;;
2019/05/09 06:01:57;;;;;;;2.6;0.7;;;;;;;13.17;56.93848;948.3658;;;;
2019/05/09 06:04:22;;;;;;;0.9;0.5;;;;;;;13.27;56.62207;948.3567;;;;
2019/05/09 06:06:47;;;;;;;1.9;0.6;;;;;;;13.39;55.98828;948.32;;;;
2019/05/09 06:09:12;;;;;;;2;0.6;;;;;;;13.46;55.0293;948.431;;;;
2019/05/09 06:11:37;;;;;;;1.5;0.6;;;;;;;13.5;55.11719;948.4177;;;;
2019/05/09 06:14:02;;;;;;;1.1;0.6;;;;;;;13.44;55.90137;948.3164;;;;
2019/05/09 06:16:28;;;;;;;2.4;0.7;;;;;;;13.13;56.23828;948.3867;;;;
2019/05/09 06:18:53;;;;;;;1.5;0.7;;;;;;;13.35;55.41699;948.3279;;;;
2019/05/09 06:21:18;;;;;;;4.2;0.8;;;;;;;13.45;55.33496;948.3726;;;;
2019/05/09 06:23:44;;;;;;;3.3;0.9;;;;;;;13.25;56.1123;948.3431;;;;
2019/05/09 06:26:09;;;;;;;2.9;0.7;;;;;;;13.42;55.10742;948.2875;;;;
2019/05/09 06:28:36;;;;;;;1.9;0.6;;;;;;;13.37;55.8916;948.2764;;;;
2019/05/09 06:31:01;;;;;;;2.4;0.6;;;;;;;13.61;54.79004;948.2986;;;;
2019/05/09 06:33:27;;;;;;;2.7;0.7;;;;;;;13.63;54.34375;948.2601;;;;
2019/05/09 06:35:53;;;;;;;2.4;0.7;;;;;;;13.77;53.85352;948.3175;;;;
2019/05/09 06:38:18;;;;;;;5.2;0.7;;;;;;;13.99;53.19531;948.2411;;;;
2019/05/09 06:40:43;;;;;;;1.9;0.7;;;;;;;13.93;53.16406;948.2933;;;;
2019/05/09 06:43:18;;;;;;;3.4;0.7;;;;;;;14.03;54.88867;948.2723;;;;
2019/05/09 06:47:58;;;;;;;3.4;0.8;;;;;;;14.12;52.54883;948.2179;;;;
2019/05/09 06:50:24;;;;;;;3.6;0.8;;;;;;;14.28;52.34375;948.2269;;;;
2019/05/09 06:52:49;;;;;;;1.5;0.6;;;;;;;14.43;52.23242;948.2227;;;;
2019/05/09 06:55:14;;;;;;;4.9;0.8;;;;;;;14.55;52.0332;948.3109;;;;
2019/05/09 06:57:39;;;;;;;2;0.7;;;;;;;14.51;51.54297;948.2104;;;;
2019/05/09 07:00:06;;;;;;;2.3;0.8;;;;;;;14.72;51.04785;948.0642;;;;
2019/05/09 07:02:43;;;;;;;1.7;0.7;;;;;;;14.74;50.08008;948.1733;;;;
2019/05/09 07:05:04;;;;;;;3.8;0.9;;;;;;;14.66;50.85156;948.1256;;;;
2019/05/09 07:07:31;;;;;;;8.6;0.9;;;;;;;14.46;51.08887;948.1588;;;;
2019/05/09 07:09:51;;;;;;;3.2;0.8;;;;;;;14.74;50.95508;948.1002;;;;
2019/05/09 07:12:12;;;;;;;2.3;0.7;;;;;;;14.86;49.24023;948.0386;;;;
2019/05/09 07:14:38;;;;;;;2.7;0.9;;;;;;;14.95;49.56055;948.0527;;;;
2019/05/09 07:17:03;;;;;;;2;0.7;;;;;;;15.12;47.67188;948.1217;;;;
2019/05/09 07:19:28;;;;;;;2.9;0.7;;;;;;;15.05;49.00195;948.1157;;;;
2019/05/09 07:22:02;;;;;;;5.8;0.9;;;;;;;15.02;48.39453;948.0699;;;;
2019/05/09 07:24:19;;;;;;;2.8;0.8;;;;;;;15.26;47.01172;947.8954;;;;
2019/05/09 07:26:44;;;;;;;3;1;;;;;;;15.51;46.87305;948.012;;;;
2019/05/09 07:29:09;;;;;;;2.6;0.8;;;;;;;15.27;46.15918;948.0195;;;;
2019/05/09 07:31:44;;;;;;;2.2;0.6;;;;;;;15.57;45.83496;947.916;;;;
2019/05/09 07:34:44;;;;;;;2.4;0.6;;;;;;;15.85;45.69824;947.8547;;;;
2019/05/09 07:36:24;;;;;;;1.8;0.7;;;;;;;16.02;45.24121;947.7992;;;;
2019/05/09 07:38:50;;;;;;;3.5;0.8;;;;;;;16.36;44.56445;947.7972;;;;
2019/05/09 07:41:15;;;;;;;2.4;0.7;;;;;;;16.28;42.72754;947.8511;;;;
2019/05/09 07:43:40;;;;;;;3.1;0.7;;;;;;;16.04;42.7627;947.83;;;;
2019/05/09 07:46:21;;;;;;;2.2;0.7;;;;;;;16.29;43.36914;947.7784;;;;
2019/05/09 07:48:30;;;;;;;2.3;0.7;;;;;;;16.28;43.46387;947.7816;;;;
2019/05/09 07:50:55;;;;;;;2.3;0.7;;;;;;;16.19;43.28809;947.7139;;;;
2019/05/09 07:53:20;;;;;;;2.1;0.7;;;;;;;16.44;43.28906;947.707;;;;
2019/05/09 07:55:46;;;;;;;1.7;0.6;;;;;;;16.32;43.88281;947.7245;;;;
2019/05/09 07:58:11;;;;;;;3.7;0.7;;;;;;;16.3;43.41895;947.6925;;;;
2019/05/09 08:00:36;;;;;;;3.1;0.9;;;;;;;16.19;43.71484;947.6838;;;;
2019/05/09 08:03:01;;;;;;;2.7;0.7;;;;;;;16.55;44.65625;947.6761;;;;
2019/05/09 08:05:26;;;;;;;3.4;0.8;;;;;;;16.81;43.19434;947.6769;;;;
2019/05/09 08:07:51;;;;;;;2.1;0.7;;;;;;;16.88;41.1084;947.7183;;;;
2019/05/09 08:10:19;;;;;;;2.4;0.7;;;;;;;16.6;41.7373;947.5914;;;;
2019/05/09 08:12:44;;;;;;;2.6;0.6;;;;;;;16.53;42.0752;947.6458;;;;
2019/05/09 08:15:09;;;;;;;5.1;0.5;;;;;;;16.63;42.71289;947.849;;;;
2019/05/09 08:17:34;;;;;;;4.1;0.7;;;;;;;17.29;41.77832;947.7444;;;;
2019/05/09 08:20:00;;;;;;;2.4;0.6;;;;;;;16.79;41.45703;947.4964;;;;
2019/05/09 08:22:25;;;;;;;2.1;0.5;;;;;;;16.73;41.71289;947.7692;;;;
2019/05/09 08:24:50;;;;;;;1.6;0.5;;;;;;;16.56;42.57617;947.9545;;;;
2019/05/09 08:27:16;;;;;;;0.8;0.5;;;;;;;16.56;43.11133;947.7626;;;;
2019/05/09 08:29:41;;;;;;;1.9;0.7;;;;;;;16.87;42.32129;947.6936;;;;
2019/05/09 08:32:06;;;;;;;2.9;0.7;;;;;;;17.22;41.99805;947.7897;;;;
2019/05/09 08:34:31;;;;;;;2.1;0.6;;;;;;;17.49;40.95215;947.8162;;;;
2019/05/09 08:36:56;;;;;;;2.5;0.5;;;;;;;17.53;41.68164;947.7983;;;;
2019/05/09 08:39:22;;;;;;;6.6;0.6;;;;;;;17.92;41.05078;947.7463;;;;
2019/05/09 08:41:48;;;;;;;1.6;0.4;;;;;;;17.82;40.55371;947.7689;;;;
2019/05/09 08:44:13;;;;;;;1.8;0.6;;;;;;;17.7;40.87598;947.695;;;;
2019/05/09 08:46:38;;;;;;;3.7;0.6;;;;;;;17.89;40.21387;947.7402;;;;
2019/05/09 08:49:03;;;;;;;1;0.6;;;;;;;17.92;41.18262;947.6805;;;;
2019/05/09 08:51:32;;;;;;;1.9;0.5;;;;;;;18.05;39.06152;947.6135;;;;
2019/05/09 08:53:54;;;;;;;0.7;0.4;;;;;;;18.12;39.55566;947.722;;;;
2019/05/09 08:56:20;;;;;;;2.8;0.7;;;;;;;18.47;39.56445;947.7717;;;;
2019/05/09 08:58:45;;;;;;;2.1;0.6;;;;;;;18.8;39.0918;947.6345;;;;
2019/05/09 09:01:10;;;;;;;3.5;0.7;;;;;;;19;37.88965;947.7296;;;;
2019/05/09 09:03:35;;;;;;;4.7;0.6;;;;;;;18.8;37.62207;947.6494;;;;
2019/05/09 09:06:01;;;;;;;3.9;0.7;;;;;;;18.83;36.57324;947.601;;;;
2019/05/09 09:08:26;;;;;;;2.7;0.8;;;;;;;18.92;37.32129;947.6909;;;;
2019/05/09 09:10:51;;;;;;;1.6;0.7;;;;;;;18.89;36.85449;947.6264;;;;
2019/05/09 09:13:16;;;;;;;1.2;0.5;;;;;;;19.58;36.1582;947.6234;;;;
2019/05/09 09:15:41;;;;;;;2.3;0.7;;;;;;;19.3;36.5166;947.6284;;;;
2019/05/09 09:18:06;;;;;;;1.3;0.5;;;;;;;19.45;35.82324;947.6234;;;;
2019/05/09 09:20:31;;;;;;;3;0.8;;;;;;;19.46;37.14063;947.6029;;;;
2019/05/09 09:22:57;;;;;;;3.2;0.7;;;;;;;19.38;36.75098;947.6166;;;;
2019/05/09 09:25:22;;;;;;;1.4;0.7;;;;;;;19.27;36.0127;947.6131;;;;
2019/05/09 09:27:47;;;;;;;3.6;0.7;;;;;;;19.52;36.66602;947.5206;;;;
2019/05/09 09:30:12;;;;;;;1.9;0.7;;;;;;;19.5;37.35938;947.5374;;;;
2019/05/09 09:32:38;;;;;;;13.4;1.2;;;;;;;19.61;37.46387;947.5387;;;;
2019/05/09 09:35:03;;;;;;;2;0.6;;;;;;;19.96;36.37988;947.5034;;;;
2019/05/09 09:37:28;;;;;;;2.3;0.7;;;;;;;19.44;36.74414;947.4934;;;;
2019/05/09 09:39:54;;;;;;;3.6;0.7;;;;;;;19.43;37.16113;947.5667;;;;
2019/05/09 09:42:20;;;;;;;3.6;0.6;;;;;;;19.25;37.34961;947.5865;;;;
2019/05/09 09:44:45;;;;;;;2.9;0.6;;;;;;;19.16;37.52148;947.555;;;;
2019/05/09 09:47:10;;;;;;;3.8;0.7;;;;;;;19.01;37.93848;947.6828;;;;
2019/05/09 09:49:35;;;;;;;2.7;0.7;;;;;;;18.94;38.18457;947.663;;;;
2019/05/09 09:52:00;;;;;;;3.7;0.7;;;;;;;18.52;39.05469;947.8576;;;;
2019/05/09 09:54:25;;;;;;;1.6;0.7;;;;;;;18.28;38.49609;947.7383;;;;
2019/05/09 09:56:52;;;;;;;2.5;0.6;;;;;;;17.48;39.10449;947.7711;;;;
2019/05/09 09:59:33;;;;;;;5.3;0.8;;;;;;;17.11;39.25;947.8117;;;;
2019/05/09 10:01:42;;;;;;;5.5;0.8;;;;;;;17.07;39.4375;948.0117;;;;
2019/05/09 10:04:09;;;;;;;5.1;0.8;;;;;;;16.9;40.18262;947.9025;;;;
2019/05/09 10:08:28;;;;;;;1.8;0.6;;;;;;;16.95;40.47266;948.0184;;;;
2019/05/09 10:10:53;;;;;;;3.2;0.6;;;;;;;16.85;40.96387;947.9651;;;;
2019/05/09 10:13:19;;;;;;;2.3;0.6;;;;;;;16.71;41.68652;948.1814;;;;
2019/05/09 10:15:57;;;;;;;3.5;0.5;;;;;;;16.68;41.85059;948.267;;;;
2019/05/09 10:18:20;;;;;;;5.5;0.6;;;;;;;16.37;41.79785;948.2869;;;;
2019/05/09 10:20:38;;;;;;;3.1;0.8;;;;;;;16.11;44.91992;948.3646;;;;
2019/05/09 10:22:59;;;;;;;4.4;0.7;;;;;;;16.27;44.22168;948.515;;;;
2019/05/09 10:25:25;;;;;;;3.4;0.7;;;;;;;16.15;46.20508;948.4744;;;;
2019/05/09 10:27:50;;;;;;;1.8;0.5;;;;;;;15.7;48.93359;948.6866;;;;
2019/05/09 10:30:15;;;;;;;3.2;0.7;;;;;;;15.81;49.40723;948.699;;;;
2019/05/09 10:32:41;;;;;;;3.1;0.7;;;;;;;15.81;51.74512;948.6842;;;;
2019/05/09 10:35:06;;;;;;;3;1;;;;;;;15.51;53.12012;948.9377;;;;
2019/05/09 10:37:31;;;;;;;0.7;0.4;;;;;;;15.18;53.77832;948.9924;;;;
2019/05/09 10:39:56;;;;;;;2.4;0.7;;;;;;;15.31;54.63574;949.0115;;;;
2019/05/09 10:42:27;;;;;;;4;0.6;;;;;;;15.73;54;948.9177;;;;
2019/05/09 10:44:51;;;;;;;1.5;0.6;;;;;;;15.44;54.90137;949.0139;;;;
2019/05/09 10:47:29;;;;;;;1;0.6;;;;;;;14.98;55.12695;948.8211;;;;
2019/05/09 10:49:37;;;;;;;1.3;0.4;;;;;;;15.04;56.08203;948.7386;;;;
2019/05/09 10:52:02;;;;;;;1.9;0.5;;;;;;;15.19;55.18945;948.7191;;;;
2019/05/09 10:54:28;;;;;;;2.6;0.5;;;;;;;14.83;55.88965;948.7527;;;;
2019/05/09 10:56:53;;;;;;;0.9;0.4;;;;;;;15;55.78125;948.6195;;;;
2019/05/09 10:59:19;;;;;;;0.5;0.4;;;;;;;15.03;56.62598;948.5701;;;;
2019/05/09 11:01:44;;;;;;;0.8;0.4;;;;;;;15.11;56.20801;948.5705;;;;
2019/05/09 11:04:10;;;;;;;1.4;0.6;;;;;;;15.25;56.70117;948.5489;;;;
2019/05/09 11:06:35;;;;;;;0.5;0.3;;;;;;;15.18;55.94629;948.5506;;;;
2019/05/09 11:09:00;;;;;;;1.1;0.5;;;;;;;15.57;55.66406;948.5494;;;;
2019/05/09 11:11:25;;;;;;;0.8;0.5;;;;;;;15.63;54.55664;948.3752;;;;
2019/05/09 11:13:50;;;;;;;2.7;0.4;;;;;;;15.68;52.84375;948.3279;;;;
2019/05/09 11:16:15;;;;;;;1.6;0.6;;;;;;;15.63;54.63965;948.231;;;;
2019/05/09 11:18:41;;;;;;;1.2;0.6;;;;;;;16.16;53.06836;948.1315;;;;
2019/05/09 11:21:06;;;;;;;0.9;0.5;;;;;;;16.44;51.16504;948.0222;;;;
2019/05/09 11:23:31;;;;;;;2.4;0.8;;;;;;;16.89;52.18066;948.1089;;;;
2019/05/09 11:25:57;;;;;;;1.5;0.6;;;;;;;17.03;49.99805;947.9413;;;;
2019/05/09 11:28:22;;;;;;;1;0.8;;;;;;;16.9;50.125;947.8406;;;;
2019/05/09 11:30:48;;;;;;;0.9;0.4;;;;;;;17.32;48.75781;947.8805;;;;
2019/05/09 11:33:13;;;;;;;2.5;0.5;;;;;;;17.43;46.61426;947.7868;;;;
2019/05/09 11:35:38;;;;;;;2.4;0.5;;;;;;;17.56;46.08008;947.7294;;;;
2019/05/09 11:38:03;;;;;;;1.4;0.5;;;;;;;17.64;45.13574;947.8572;;;;
2019/05/09 11:40:28;;;;;;;1.2;0.5;;;;;;;17.57;43.88965;947.7467;;;;
2019/05/09 11:42:53;;;;;;;2;0.6;;;;;;;17.83;43.8916;947.6617;;;;
2019/05/09 11:45:19;;;;;;;3.7;0.7;;;;;;;17.46;45.25977;947.6166;;;;
2019/05/09 11:47:44;;;;;;;2.1;0.5;;;;;;;17.64;45.21875;947.7257;;;;
2019/05/09 11:50:09;;;;;;;0.8;0.4;;;;;;;17.85;44.38184;947.666;;;;
2019/05/09 11:52:34;;;;;;;1.4;0.5;;;;;;;17.79;42.66016;947.6308;;;;
2019/05/09 11:54:59;;;;;;;2.7;0.5;;;;;;;17.55;43.25586;947.874;;;;
2019/05/09 11:57:24;;;;;;;3.3;0.5;;;;;;;17.49;43.19043;947.5833;;;;
2019/05/09 11:59:50;;;;;;;1.3;0.5;;;;;;;17.84;43.03418;947.5717;;;;
2019/05/09 12:02:17;;;;;;;1.3;0.5;;;;;;;17.36;43.18945;947.5261;;;;
2019/05/09 12:04:42;;;;;;;3.9;0.6;;;;;;;17.33;43.90039;947.642;;;;
2019/05/09 12:07:09;;;;;;;3.2;0.5;;;;;;;17.82;43.72461;947.5397;;;;
2019/05/09 12:09:34;;;;;;;1.7;0.6;;;;;;;17.95;42.38965;947.4705;;;;
2019/05/09 12:12:00;;;;;;;3.2;0.6;;;;;;;17.77;41.97852;947.561;;;;
2019/05/09 12:14:25;;;;;;;1.6;0.5;;;;;;;17.58;41.91309;947.5685;;;;
2019/05/09 12:16:50;;;;;;;2;0.6;;;;;;;17.69;41.32715;947.3337;;;;
2019/05/09 12:19:15;;;;;;;1.1;0.5;;;;;;;17.91;41.09863;947.3739;;;;
2019/05/09 12:21:40;;;;;;;1.6;0.5;;;;;;;17.96;41.55566;947.4387;;;;
2019/05/09 12:24:05;;;;;;;2.7;0.5;;;;;;;18.25;41.9541;947.4272;;;;
2019/05/09 12:26:30;;;;;;;1.2;0.5;;;;;;;18.35;41.29395;947.3519;;;;
2019/05/09 12:28:55;;;;;;;0.8;0.5;;;;;;;18.48;39.83887;947.4103;;;;
2019/05/09 12:31:20;;;;;;;0.9;0.5;;;;;;;18.2;39.13281;947.3172;;;;
2019/05/09 12:33:46;;;;;;;0.7;0.4;;;;;;;18.21;39.13379;947.4601;;;;
2019/05/09 12:36:11;;;;;;;2.5;0.5;;;;;;;18.11;40.24609;947.3589;;;;
2019/05/09 12:38:36;;;;;;;1.7;0.5;;;;;;;18;40.23633;947.3887;;;;
2019/05/09 12:41:02;;;;;;;3.3;0.4;;;;;;;17.94;40.00488;947.442;;;;
2019/05/09 12:43:29;;;;;;;1.8;0.5;;;;;;;17.82;39.9707;947.4437;;;;
2019/05/09 12:45:54;;;;;;;2;0.5;;;;;;;17.65;39.97852;947.4476;;;;
2019/05/09 12:48:19;;;;;;;2.4;0.4;;;;;;;18.2;39.07422;947.3209;;;;
2019/05/09 12:50:44;;;;;;;2.2;0.5;;;;;;;18.3;38.80762;947.3206;;;;
2019/05/09 12:53:13;;;;;;;1.6;0.4;;;;;;;18.69;38.62891;947.3387;;;;
2019/05/09 12:55:38;;;;;;;3.7;0.7;;;;;;;18.97;38.46191;947.2734;;;;
2019/05/09 12:58:04;;;;;;;2.1;0.5;;;;;;;19.01;38.5957;947.4228;;;;
2019/05/09 13:00:29;;;;;;;2;0.5;;;;;;;18.86;37.75879;947.5242;;;;
2019/05/09 13:02:54;;;;;;;1.1;0.4;;;;;;;18.47;37.75;947.3236;;;;
2019/05/09 13:05:19;;;;;;;2.1;0.6;;;;;;;18.47;38.37012;947.3895;;;;
2019/05/09 13:07:45;;;;;;;2.3;0.5;;;;;;;18.58;38.0332;947.4706;;;;
2019/05/09 13:10:10;;;;;;;2.7;0.7;;;;;;;18.28;38.46094;947.3147;;;;
2019/05/09 13:12:35;;;;;;;2.3;0.5;;;;;;;17.74;39.65234;947.4216;;;;
2019/05/09 13:15:00;;;;;;;3.1;0.9;;;;;;;18.06;39.88477;947.4406;;;;
2019/05/09 13:17:31;;;;;;;1.8;0.6;;;;;;;18.14;39.78418;947.4177;;;;
2019/05/09 13:19:50;;;;;;;3.4;0.6;;;;;;;18.22;39.82617;947.3964;;;;
2019/05/09 13:22:16;;;;;;;5.6;0.7;;;;;;;18.26;40.29688;947.4161;;;;
2019/05/09 13:24:41;;;;;;;3.1;0.6;;;;;;;18.32;39.89551;947.3417;;;;
2019/05/09 13:27:07;;;;;;;2.3;0.6;;;;;;;18.52;39.7832;947.2514;;;;
2019/05/09 13:29:32;;;;;;;3.5;0.6;;;;;;;18.45;40.20605;947.3422;;;;
2019/05/09 13:32:00;;;;;;;1;0.6;;;;;;;18.31;40.27637;947.2477;;;;
2019/05/09 13:34:25;;;;;;;1.9;0.5;;;;;;;18.38;40.6416;947.3975;;;;
2019/05/09 13:36:50;;;;;;;1.6;0.7;;;;;;;18.58;39.99023;947.3352;;;;
2019/05/09 13:39:15;;;;;;;2.1;0.6;;;;;;;18.59;39.74121;947.3052;;;;
2019/05/09 13:41:40;;;;;;;2;0.7;;;;;;;18.51;40.30762;947.5179;;;;
2019/05/09 13:44:07;;;;;;;2.6;0.6;;;;;;;17.93;41.07617;947.3535;;;;
2019/05/09 13:46:32;;;;;;;1.2;0.5;;;;;;;17.95;42.72461;947.527;;;;
2019/05/09 13:48:57;;;;;;;3.2;0.8;;;;;;;17.5;45.82324;947.5723;;;;
2019/05/09 13:51:22;;;;;;;3.7;0.7;;;;;;;17.83;47.52637;947.6863;;;;
2019/05/09 13:53:47;;;;;;;3.8;0.7;;;;;;;17.94;48.24121;947.758;;;;
2019/05/09 13:56:13;;;;;;;2;0.5;;;;;;;17.12;50.28027;947.6597;;;;
2019/05/09 13:58:38;;;;;;;2;0.5;;;;;;;17.2;48.88574;947.5149;;;;
2019/05/09 14:01:03;;;;;;;2.1;0.6;;;;;;;17.44;48.96094;947.4733;;;;
2019/05/09 14:03:28;;;;;;;3;0.7;;;;;;;17.78;47.62793;947.3865;;;;
2019/05/09 14:05:53;;;;;;;2.3;0.6;;;;;;;17.85;47.39746;947.4142;;;;
2019/05/09 14:08:19;;;;;;;1.6;0.7;;;;;;;17.98;47.78027;947.407;;;;
2019/05/09 14:10:45;;;;;;;2.6;0.6;;;;;;;18.06;47.4668;947.3934;;;;
2019/05/09 14:13:10;;;;;;;2.2;0.6;;;;;;;18.21;47.18652;947.3887;;;;
2019/05/09 14:15:35;;;;;;;2;0.6;;;;;;;18.07;46.68164;947.2941;;;;
2019/05/09 14:18:00;;;;;;;2.8;0.6;;;;;;;18.17;47.51563;947.3145;;;;
2019/05/09 14:20:25;;;;;;;1.9;0.7;;;;;;;18.4;47.34863;947.3356;;;;
2019/05/09 14:22:50;;;;;;;3.5;0.6;;;;;;;18.66;46.3623;947.2932;;;;
2019/05/09 14:25:15;;;;;;;2.3;0.6;;;;;;;18.5;47.00098;947.2828;;;;
2019/05/09 14:27:40;;;;;;;2.3;0.6;;;;;;;18.31;44.14258;947.2438;;;;
2019/05/09 14:30:06;;;;;;;1;0.5;;;;;;;18.31;44.14258;947.2383;;;;
2019/05/09 14:32:31;;;;;;;1.7;0.6;;;;;;;18.35;43.38184;947.252;;;;
2019/05/09 14:34:56;;;;;;;3.4;0.6;;;;;;;18.21;43.52344;947.2494;;;;
2019/05/09 14:37:21;;;;;;;1.8;0.6;;;;;;;17.89;44.58887;947.3134;;;;
2019/05/09 14:39:46;;;;;;;2.5;0.5;;;;;;;18.12;45.23242;947.2556;;;;
2019/05/09 14:42:11;;;;;;;2.8;0.7;;;;;;;17.81;43.80566;947.3099;;;;
2019/05/09 14:44:40;;;;;;;2.8;0.5;;;;;;;18.14;44.20898;947.2991;;;;
2019/05/09 14:47:05;;;;;;;2.1;0.5;;;;;;;18.17;44.22363;947.2581;;;;
2019/05/09 14:49:30;;;;;;;4.3;0.7;;;;;;;18.37;44.05273;947.3878;;;;
2019/05/09 14:51:56;;;;;;;1.7;0.7;;;;;;;18.01;44.88672;947.4135;;;;
2019/05/09 14:54:21;;;;;;;1.9;0.5;;;;;;;18.01;43.59961;947.3909;;;;
2019/05/09 14:56:46;;;;;;;1.3;0.7;;;;;;;18.09;43.36816;947.4487;;;;
2019/05/09 14:59:11;;;;;;;2.2;0.6;;;;;;;18.09;43.45215;947.4072;;;;
2019/05/09 15:01:36;;;;;;;1.9;0.7;;;;;;;17.84;44.72754;947.4515;;;;
2019/05/09 15:04:01;;;;;;;1.7;0.6;;;;;;;18.03;43.86328;947.361;;;;
2019/05/09 15:06:26;;;;;;;1.6;0.6;;;;;;;18.16;43.36328;947.3578;;;;
2019/05/09 15:08:51;;;;;;;2.5;0.7;;;;;;;18.2;44.10645;947.3265;;;;
2019/05/09 15:11:16;;;;;;;1.5;0.7;;;;;;;18.05;43.99609;947.4875;;;;
2019/05/09 15:13:41;;;;;;;4.6;0.9;;;;;;;17.43;46.03027;947.8433;;;;
2019/05/09 15:16:06;;;;;;;3.4;0.7;;;;;;;16.81;53.06348;948.0092;;;;
2019/05/09 15:18:32;;;;;;;3.5;0.8;;;;;;;16.77;53.71289;947.9088;;;;
2019/05/09 15:20:57;;;;;;;2.6;0.7;;;;;;;16.38;54.19922;947.8558;;;;
2019/05/09 15:23:22;;;;;;;4.6;0.6;;;;;;;16.73;53.58887;947.7954;;;;
2019/05/09 15:25:49;;;;;;;2.8;0.6;;;;;;;16.74;53.78125;947.7656;;;;
2019/05/09 15:28:14;;;;;;;2;0.6;;;;;;;17.01;53.95605;947.7625;;;;
2019/05/09 15:30:39;;;;;;;2.1;0.6;;;;;;;17.18;53.07324;947.8245;;;;
2019/05/09 15:33:05;;;;;;;4.3;0.7;;;;;;;17.12;53.10156;947.9133;;;;
2019/05/09 15:35:30;;;;;;;3.3;0.7;;;;;;;17.16;54.62988;947.9612;;;;
2019/05/09 15:37:56;;;;;;;2.7;0.8;;;;;;;16.99;54.56055;948.0175;;;;
2019/05/09 15:40:21;;;;;;;3.7;0.6;;;;;;;17.23;54.04297;947.8801;;;;
2019/05/09 15:42:46;;;;;;;2.2;0.7;;;;;;;16.64;55.30078;947.9508;;;;
2019/05/09 15:45:11;;;;;;;2.7;0.7;;;;;;;16.96;54.52051;947.9154;;;;
2019/05/09 15:47:36;;;;;;;3.7;0.9;;;;;;;17.22;54.23145;947.9702;;;;
2019/05/09 15:50:05;;;;;;;2.6;0.8;;;;;;;17.12;53.77832;948.024;;;;
2019/05/09 15:52:30;;;;;;;2.5;0.7;;;;;;;17.1;52.99219;947.9263;;;;
2019/05/09 15:54:59;;;;;;;7.4;0.7;;;;;;;17.06;52.52246;947.9928;;;;
2019/05/09 15:57:24;;;;;;;3.3;0.8;;;;;;;17.23;51.75781;948.0247;;;;
2019/05/09 15:59:49;;;;;;;2.1;0.6;;;;;;;17.46;52.12988;948.0167;;;;
2019/05/09 16:02:14;;;;;;;1.9;0.7;;;;;;;17.67;51.19141;947.9861;;;;
2019/05/09 16:04:40;;;;;;;4.4;0.8;;;;;;;17.54;51.00781;947.8625;;;;
2019/05/09 16:09:21;;;;;;;4.2;0.7;;;;;;;17.61;50.6709;947.8812;;;;
2019/05/09 16:11:46;;;;;;;2.6;0.7;;;;;;;17.62;49.93262;947.8494;;;;
2019/05/09 16:14:11;;;;;;;2.1;0.7;;;;;;;17.72;49.59863;947.9623;;;;
2019/05/09 16:16:36;;;;;;;3.3;0.7;;;;;;;17.78;49.21191;947.9224;;;;
2019/05/09 16:19:02;;;;;;;1.3;0.7;;;;;;;17.92;48.12012;947.912;;;;
2019/05/09 16:21:27;;;;;;;2.8;0.8;;;;;;;17.8;48.11914;947.9226;;;;
2019/05/09 16:23:56;;;;;;;4.1;0.9;;;;;;;17.46;50.26074;948.0298;;;;
2019/05/09 16:26:21;;;;;;;1.7;0.7;;;;;;;17.66;49.50879;948.0815;;;;
2019/05/09 16:28:47;;;;;;;1.7;0.7;;;;;;;17.34;50.60449;948.0818;;;;
2019/05/09 16:31:13;;;;;;;1.6;0.8;;;;;;;17.56;50.84375;948.0809;;;;
2019/05/09 16:33:40;;;;;;;1.7;0.8;;;;;;;17.67;51.12988;948.1495;;;;
2019/05/09 16:36:05;;;;;;;2.6;0.8;;;;;;;17.7;52.38574;948.2648;;;;
2019/05/09 16:38:32;;;;;;;1.7;0.8;;;;;;;17.6;52.95605;948.4506;;;;
2019/05/09 16:40:57;;;;;;;3.5;0.8;;;;;;;17.34;55.05664;948.6041;;;;
2019/05/09 16:43:24;;;;;;;2.6;1;;;;;;;16.86;57.74316;948.8875;;;;
2019/05/09 16:46:00;;;;;;;2.6;0.7;;;;;;;16.2;58.92676;948.8228;;;;
2019/05/09 16:48:44;;;;;;;3.8;0.8;;;;;;;16.19;60.18262;948.7604;;;;
2019/05/09 16:51:10;;;;;;;3.4;0.6;;;;;;;16.18;58.60254;948.6925;;;;
2019/05/09 16:53:35;;;;;;;2.6;0.6;;;;;;;16.12;58.85645;948.7175;;;;
2019/05/09 16:56:01;;;;;;;1.7;0.6;;;;;;;16.38;57.75195;948.7564;;;;
2019/05/09 16:58:26;;;;;;;2.8;0.6;;;;;;;16.22;58.37109;948.7011;;;;
2019/05/09 17:00:51;;;;;;;2.8;0.6;;;;;;;16.41;57.5166;948.6594;;;;
2019/05/09 17:03:18;;;;;;;2.4;0.9;;;;;;;16.23;58.51465;948.6245;;;;
2019/05/09 17:05:43;;;;;;;2.8;0.8;;;;;;;16.48;58.03711;948.5808;;;;
2019/05/09 17:08:08;;;;;;;2.6;0.7;;;;;;;16.69;57.00781;948.6278;;;;
2019/05/09 17:10:33;;;;;;;1.3;0.6;;;;;;;16.37;58.99609;948.6492;;;;
2019/05/09 17:12:59;;;;;;;3;0.6;;;;;;;16.5;57.80371;948.726;;;;
2019/05/09 17:15:24;;;;;;;2.2;0.6;;;;;;;16.55;56.77441;948.755;;;;
2019/05/09 17:17:49;;;;;;;2.8;0.7;;;;;;;16.44;57.77148;948.7955;;;;
2019/05/09 17:20:16;;;;;;;2.1;0.4;;;;;;;16.44;57.93652;948.8102;;;;
2019/05/09 17:25:04;;;;;;;2.4;0.8;;;;;;;16.57;56.94434;948.878;;;;
2019/05/09 17:27:29;;;;;;;3.1;0.8;;;;;;;16.31;57.83691;948.8859;;;;
2019/05/09 17:29:54;;;;;;;1.3;0.7;;;;;;;16.3;57.81152;948.8273;;;;
2019/05/09 17:32:20;;;;;;;4.1;1;;;;;;;16.39;57.70508;948.8859;;;;
2019/05/09 17:34:45;;;;;;;3.2;0.9;;;;;;;16.55;57.17871;948.952;;;;
2019/05/09 17:37:10;;;;;;;3.4;1;;;;;;;16.69;56.9834;948.9996;;;;
2019/05/09 17:39:35;;;;;;;3.6;1.1;;;;;;;16.61;57.05664;948.9129;;;;
2019/05/09 17:42:00;;;;;;;2.7;1;;;;;;;16.68;57.20898;948.9881;;;;
2019/05/09 17:44:25;;;;;;;3.5;1.1;;;;;;;16.73;57.41602;949.0963;;;;
2019/05/09 17:46:50;;;;;;;2.8;0.9;;;;;;;16.57;58.05078;949.1655;;;;
2019/05/09 17:49:16;;;;;;;3.9;1.3;;;;;;;16.21;58.27344;949.1191;;;;
2019/05/09 17:51:41;;;;;;;3.5;1.4;;;;;;;16.31;57.33887;949.1915;;;;
2019/05/09 17:54:06;;;;;;;3.7;0.8;;;;;;;16.57;55.96973;949.3641;;;;
2019/05/09 17:56:31;;;;;;;3.5;1;;;;;;;16.46;56.10938;949.3834;;;;
2019/05/09 17:58:56;;;;;;;3.8;0.9;;;;;;;16.15;55.63086;949.3633;;;;
2019/05/09 18:01:21;;;;;;;3.7;0.9;;;;;;;16.19;55.71973;949.3102;;;;
2019/05/09 18:03:46;;;;;;;2.1;0.7;;;;;;;16.26;55.90527;949.3532;;;;
2019/05/09 18:06:12;;;;;;;2.9;0.8;;;;;;;16.07;55.26465;949.4155;;;;
2019/05/09 18:08:37;;;;;;;1.7;0.7;;;;;;;15.97;54.99121;949.4069;;;;
2019/05/09 18:11:02;;;;;;;3.9;0.7;;;;;;;15.92;55.87598;949.4484;;;;
2019/05/09 18:13:27;;;;;;;1.4;0.7;;;;;;;15.82;56.11035;949.5934;;;;
2019/05/09 18:15:52;;;;;;;1.3;0.7;;;;;;;15.8;56.01367;949.5535;;;;
2019/05/09 18:18:17;;;;;;;3;0.9;;;;;;;15.7;56.36816;949.7022;;;;
2019/05/09 18:20:42;;;;;;;3.4;0.9;;;;;;;15.56;57.2998;949.6829;;;;
2019/05/09 18:23:07;;;;;;;1.9;0.8;;;;;;;15.63;56.08691;949.7078;;;;
2019/05/09 18:25:34;;;;;;;3.3;0.7;;;;;;;15.76;55.45117;949.7245;;;;